createdAt,value
2023-05-08T00:00:19.227Z,23.80
2023-05-08T00:02:46.645Z,23.48
2023-05-08T00:05:14.041Z,22.73
2023-05-08T00:07:41.415Z,25.42
2023-05-08T00:10:09.929Z,24.77
2023-05-08T00:12:37.709Z,27.63
2023-05-08T00:15:07.133Z,29.88
2023-05-08T00:17:34.482Z,27.70
2023-05-08T00:20:02.800Z,25.45
2023-05-08T00:22:30.079Z,29.38
2023-05-08T00:24:57.426Z,26.10
2023-05-08T00:27:24.753Z,23.58
2023-05-08T00:29:52.030Z,25.05
2023-05-08T00:32:20.764Z,23.98
2023-05-08T00:34:48.204Z,23.63
2023-05-08T00:37:15.571Z,21.38
2023-05-08T00:39:42.941Z,22.73
2023-05-08T00:42:10.291Z,22.83
2023-05-08T00:44:39.462Z,21.67
2023-05-08T00:47:06.938Z,23.98
2023-05-08T00:49:36.128Z,21.75
2023-05-08T00:52:04.558Z,23.80
2023-05-08T00:54:32.035Z,23.98
2023-05-08T00:56:59.596Z,27.83
2023-05-08T00:59:27.015Z,30.20
2023-05-08T01:01:54.634Z,26.95
2023-05-08T01:04:22.656Z,27.00
2023-05-08T01:06:51.320Z,26.00
2023-05-08T01:09:18.673Z,27.05
2023-05-08T01:11:48.898Z,27.73
2023-05-08T01:14:18.224Z,25.90
2023-05-08T01:16:46.323Z,28.98
2023-05-08T01:19:27.387Z,27.85
2023-05-08T01:21:58.400Z,35.10
2023-05-08T01:24:32.176Z,33.00
2023-05-08T01:27:13.249Z,34.97
2023-05-08T01:30:01.684Z,38.20
2023-05-08T01:32:34.964Z,33.15
2023-05-08T01:35:10.915Z,39.58
2023-05-08T01:37:40.175Z,40.80
2023-05-08T01:40:17.633Z,38.53
2023-05-08T01:42:48.881Z,39.95
2023-05-08T01:45:19.615Z,48.65
2023-05-08T01:47:50.963Z,42.25
2023-05-08T01:50:21.794Z,46.63
2023-05-08T01:52:50.404Z,51.50
2023-05-08T01:55:21.056Z,44.70
2023-05-08T01:57:50.039Z,51.30
2023-05-08T02:00:18.450Z,48.72
2023-05-08T02:02:46.140Z,50.88
2023-05-08T02:05:15.194Z,44.72
2023-05-08T02:07:43.729Z,43.00
2023-05-08T02:10:12.420Z,44.03
2023-05-08T02:12:40.928Z,41.42
2023-05-08T02:15:09.206Z,41.92
2023-05-08T02:17:37.733Z,36.92
2023-05-08T02:20:05.904Z,31.08
2023-05-08T02:22:35.742Z,38.13
2023-05-08T02:25:03.699Z,28.00
2023-05-08T02:27:31.311Z,28.88
2023-05-08T02:30:00.476Z,24.00
2023-05-08T02:32:27.922Z,24.45
2023-05-08T02:35:03.267Z,27.00
2023-05-08T02:37:32.072Z,25.67
2023-05-08T02:40:02.548Z,23.42
2023-05-08T02:42:29.914Z,23.45
2023-05-08T02:44:57.279Z,26.55
2023-05-08T02:47:26.349Z,21.75
2023-05-08T02:49:56.900Z,21.85
2023-05-08T02:52:25.909Z,22.88
2023-05-08T02:54:57.018Z,23.83
2023-05-08T02:57:30.062Z,21.73
2023-05-08T02:59:58.463Z,19.42
2023-05-08T03:02:29.697Z,19.30
2023-05-08T03:04:59.754Z,22.25
2023-05-08T03:07:28.149Z,19.50
2023-05-08T03:09:58.093Z,19.48
2023-05-08T03:12:29.900Z,22.42
2023-05-08T03:15:00.194Z,20.05
2023-05-08T03:17:27.789Z,20.88
2023-05-08T03:19:57.898Z,23.88
2023-05-08T03:22:26.243Z,22.33
2023-05-08T03:24:54.524Z,20.38
2023-05-08T03:27:21.907Z,19.63
2023-05-08T03:29:52.187Z,20.73
2023-05-08T03:32:20.875Z,20.73
2023-05-08T03:34:49.053Z,23.48
2023-05-08T03:37:16.422Z,22.05
2023-05-08T03:39:43.757Z,20.50
2023-05-08T03:42:20.956Z,23.67
2023-05-08T03:44:48.605Z,24.55
2023-05-08T03:47:17.496Z,23.20
2023-05-08T03:49:45.912Z,22.77
2023-05-08T03:52:13.312Z,22.67
2023-05-08T03:54:40.635Z,22.83
2023-05-08T03:57:07.985Z,24.52
2023-05-08T03:59:39.437Z,22.85
2023-05-08T04:02:13.625Z,20.35
2023-05-08T04:04:42.956Z,23.48
2023-05-08T04:07:12.235Z,22.27
2023-05-08T04:09:44.102Z,23.23
2023-05-08T04:12:15.769Z,25.65
2023-05-08T04:14:44.804Z,25.00
2023-05-08T04:17:15.338Z,23.40
2023-05-08T04:19:47.160Z,21.88
2023-05-08T04:22:15.961Z,23.50
2023-05-08T04:24:45.251Z,21.67
2023-05-08T04:27:13.445Z,29.98
2023-05-08T04:29:41.179Z,24.98
2023-05-08T04:32:09.371Z,23.20
2023-05-08T04:34:37.022Z,22.42
2023-05-08T04:37:07.181Z,24.65
2023-05-08T04:39:34.730Z,24.98
2023-05-08T04:42:03.639Z,24.17
2023-05-08T04:44:32.080Z,28.60
2023-05-08T04:46:59.408Z,23.73
2023-05-08T04:49:26.843Z,27.73
2023-05-08T04:51:54.132Z,23.98
2023-05-08T04:54:22.832Z,28.23
2023-05-08T04:56:50.250Z,25.65
2023-05-08T04:59:17.544Z,27.58
2023-05-08T05:01:46.306Z,26.17
2023-05-08T05:04:15.923Z,31.08
2023-05-08T05:06:43.267Z,30.63
2023-05-08T05:09:11.652Z,24.50
2023-05-08T05:11:40.363Z,25.88
2023-05-08T05:14:08.108Z,27.27
2023-05-08T05:16:35.583Z,26.00
2023-05-08T05:19:03.452Z,28.23
2023-05-08T05:21:30.727Z,30.02
2023-05-08T05:23:58.011Z,29.40
2023-05-08T05:26:25.318Z,25.95
2023-05-08T05:28:53.980Z,28.88
2023-05-08T05:31:21.363Z,26.23
2023-05-08T05:33:49.102Z,28.45
2023-05-08T05:36:16.803Z,29.65
2023-05-08T05:38:44.213Z,29.08
2023-05-08T05:41:11.536Z,30.48
2023-05-08T05:43:38.856Z,31.30
2023-05-08T05:46:07.906Z,30.70
2023-05-08T05:48:35.697Z,30.17
2023-05-08T05:51:03.486Z,30.50
2023-05-08T05:53:30.775Z,30.05
2023-05-08T05:55:58.109Z,28.65
2023-05-08T05:58:25.393Z,28.38
2023-05-08T06:00:52.783Z,27.13
2023-05-08T06:03:21.548Z,28.58
2023-05-08T06:05:48.923Z,30.55
2023-05-08T06:08:17.880Z,30.65
2023-05-08T06:10:45.327Z,28.88
2023-05-08T06:13:12.795Z,29.10
2023-05-08T06:15:40.164Z,26.90
2023-05-08T06:18:07.602Z,27.17
2023-05-08T06:20:37.663Z,26.20
2023-05-08T06:23:05.009Z,30.85
2023-05-08T06:25:32.606Z,24.40
2023-05-08T06:27:59.939Z,28.25
2023-05-08T06:30:27.424Z,30.17
2023-05-08T06:32:54.853Z,24.95
2023-05-08T06:35:22.204Z,25.30
2023-05-08T06:37:50.949Z,26.23
2023-05-08T06:40:18.333Z,26.52
2023-05-08T06:42:46.144Z,26.80
2023-05-08T06:45:13.670Z,27.23
2023-05-08T06:47:41.325Z,24.95
2023-05-08T06:50:08.972Z,24.48
2023-05-08T06:52:36.293Z,21.15
2023-05-08T06:55:05.285Z,21.00
2023-05-08T06:57:32.600Z,20.40
2023-05-08T06:59:59.886Z,19.20
2023-05-08T07:02:27.446Z,20.50
2023-05-08T07:04:55.122Z,16.13
2023-05-08T07:07:22.481Z,13.85
2023-05-08T07:09:49.773Z,14.40
2023-05-08T07:12:18.699Z,13.85
2023-05-08T07:14:46.227Z,16.92
2023-05-08T07:17:13.545Z,15.32
2023-05-08T07:19:41.302Z,15.23
2023-05-08T07:22:08.701Z,12.40
2023-05-08T07:24:36.119Z,13.30
2023-05-08T07:27:03.491Z,20.83
2023-05-08T07:29:32.154Z,13.25
2023-05-08T07:31:59.663Z,13.82
2023-05-08T07:34:27.102Z,10.68
2023-05-08T07:36:54.407Z,11.93
2023-05-08T07:39:22.078Z,12.02
2023-05-08T07:41:49.959Z,12.77
2023-05-08T07:44:17.649Z,11.63
2023-05-08T07:46:46.309Z,11.52
2023-05-08T07:49:13.675Z,12.32
2023-05-08T07:51:41.272Z,10.27
2023-05-08T07:54:08.636Z,9.70
2023-05-08T07:56:35.989Z,9.57
2023-05-08T07:59:03.279Z,11.27
2023-05-08T08:01:30.628Z,13.32
2023-05-08T08:03:59.373Z,10.90
2023-05-08T08:06:28.103Z,11.55
2023-05-08T08:08:55.379Z,12.32
2023-05-08T08:11:22.705Z,11.15
2023-05-08T08:13:50.018Z,12.13
2023-05-08T08:16:17.347Z,12.10
2023-05-08T08:18:44.760Z,11.93
2023-05-08T08:21:13.423Z,13.27
2023-05-08T08:23:40.744Z,11.82
2023-05-08T08:26:08.084Z,12.55
2023-05-08T08:28:35.389Z,12.70
2023-05-08T08:31:02.775Z,12.70
2023-05-08T08:33:30.331Z,13.02
2023-05-08T08:35:57.691Z,15.82
2023-05-08T08:38:26.381Z,11.23
2023-05-08T08:40:54.133Z,12.98
2023-05-08T08:43:21.517Z,12.95
2023-05-08T08:45:48.894Z,16.52
2023-05-08T08:48:16.931Z,12.07
2023-05-08T08:50:44.859Z,13.45
2023-05-08T08:53:15.334Z,13.35
2023-05-08T08:55:45.560Z,13.55
2023-05-08T08:58:15.714Z,12.38
2023-05-08T09:00:43.768Z,14.65
2023-05-08T09:03:11.176Z,13.80
2023-05-08T09:05:38.773Z,13.63
2023-05-08T09:08:06.983Z,14.88
2023-05-08T09:10:35.874Z,17.50
2023-05-08T09:13:05.428Z,13.88
2023-05-08T09:15:32.895Z,16.58
2023-05-08T09:18:01.576Z,15.25
2023-05-08T09:20:29.597Z,14.18
2023-05-08T09:22:57.522Z,14.57
2023-05-08T09:25:24.887Z,15.20
2023-05-08T09:27:52.204Z,12.75
2023-05-08T09:30:20.986Z,14.48
2023-05-08T09:32:48.498Z,14.25
2023-05-08T09:35:16.139Z,12.75
2023-05-08T09:37:44.064Z,19.65
2023-05-08T09:40:15.230Z,13.32
2023-05-08T09:42:42.579Z,14.80
2023-05-08T09:45:10.374Z,12.73
2023-05-08T09:47:39.510Z,17.02
2023-05-08T09:50:07.859Z,12.77
2023-05-08T09:52:36.523Z,14.20
2023-05-08T09:55:04.574Z,14.75
2023-05-08T09:57:32.624Z,16.73
2023-05-08T10:00:05.999Z,15.40
2023-05-08T10:02:33.416Z,14.23
2023-05-08T10:05:02.289Z,16.80
2023-05-08T10:07:30.494Z,14.55
2023-05-08T10:10:01.596Z,18.88
2023-05-08T10:12:31.651Z,15.77
2023-05-08T10:14:59.327Z,14.50
2023-05-08T10:17:27.820Z,14.88
2023-05-08T10:19:59.396Z,16.08
2023-05-08T10:22:28.935Z,14.57
2023-05-08T10:24:57.002Z,13.90
2023-05-08T10:27:30.341Z,15.10
2023-05-08T10:30:00.832Z,14.90
2023-05-08T10:32:29.538Z,15.15
2023-05-08T10:34:57.727Z,15.80
2023-05-08T10:37:25.230Z,15.48
2023-05-08T10:39:55.052Z,14.63
2023-05-08T10:42:22.913Z,15.75
2023-05-08T10:44:50.408Z,15.27
2023-05-08T10:47:20.316Z,17.63
2023-05-08T10:49:50.275Z,16.50
2023-05-08T10:52:19.465Z,14.57
2023-05-08T10:55:04.620Z,15.35
2023-05-08T10:57:32.246Z,16.17
2023-05-08T10:59:59.750Z,17.33
2023-05-08T11:02:28.538Z,16.38
2023-05-08T11:04:55.980Z,13.52
2023-05-08T11:07:30.754Z,16.00
2023-05-08T11:10:08.413Z,19.30
2023-05-08T11:12:38.289Z,15.38
2023-05-08T11:15:13.466Z,13.45
2023-05-08T11:17:46.400Z,13.27
2023-05-08T11:20:14.183Z,13.38
2023-05-08T11:22:47.988Z,14.77
2023-05-08T11:25:15.321Z,14.10
2023-05-08T11:28:06.577Z,13.95
2023-05-08T11:30:38.856Z,13.35
2023-05-08T11:33:24.162Z,16.25
2023-05-08T11:38:19.812Z,13.45
2023-05-08T11:40:53.047Z,14.38
2023-05-08T11:43:21.052Z,12.73
2023-05-08T11:45:49.663Z,15.40
2023-05-08T11:48:17.382Z,12.77
2023-05-08T11:50:45.098Z,11.98
2023-05-08T11:53:12.445Z,14.90
2023-05-08T11:55:40.643Z,14.00
2023-05-08T11:58:12.834Z,11.55
2023-05-08T12:00:41.563Z,11.60
2023-05-08T12:03:12.600Z,13.82
2023-05-08T12:05:40.571Z,10.77
2023-05-08T12:08:07.917Z,12.02
2023-05-08T12:10:41.070Z,10.93
2023-05-08T12:13:18.358Z,11.68
2023-05-08T12:15:46.676Z,11.02
2023-05-08T12:18:15.996Z,12.18
2023-05-08T12:20:43.439Z,11.00
2023-05-08T12:23:11.033Z,8.48
2023-05-08T12:25:38.895Z,8.70
2023-05-08T12:28:07.334Z,9.45
2023-05-08T12:30:34.751Z,9.52
2023-05-08T12:33:02.884Z,7.15
2023-05-08T12:35:31.814Z,8.82
2023-05-08T12:38:01.572Z,7.38
2023-05-08T12:40:29.990Z,6.82
2023-05-08T12:42:57.372Z,6.15
2023-05-08T12:45:25.572Z,8.10
2023-05-08T12:47:53.679Z,6.13
2023-05-08T12:50:22.726Z,8.70
2023-05-08T12:52:51.920Z,5.00
2023-05-08T12:55:23.235Z,5.38
2023-05-08T12:57:51.656Z,8.32
2023-05-08T13:00:19.534Z,7.60
2023-05-08T13:02:53.356Z,5.50
2023-05-08T13:05:21.433Z,4.40
2023-05-08T13:07:49.094Z,6.57
2023-05-08T13:10:45.862Z,6.78
2023-05-08T13:13:14.579Z,5.63
2023-05-08T13:15:42.361Z,5.78
2023-05-08T13:18:09.887Z,5.88
2023-05-08T13:20:37.398Z,5.45
2023-05-08T13:23:04.841Z,7.07
2023-05-08T13:25:32.496Z,4.75
2023-05-08T13:27:59.947Z,5.78
2023-05-08T13:30:28.637Z,5.40
2023-05-08T13:32:56.194Z,4.65
2023-05-08T13:35:24.803Z,6.20
2023-05-08T13:37:52.207Z,4.55
2023-05-08T13:40:19.536Z,4.45
2023-05-08T13:42:46.936Z,4.13
2023-05-08T13:45:15.285Z,5.43
2023-05-08T13:47:44.270Z,5.15
2023-05-08T13:50:12.141Z,4.80
2023-05-08T13:52:39.909Z,5.80
2023-05-08T13:55:07.758Z,4.82
2023-05-08T13:57:35.258Z,5.00
2023-05-08T14:00:02.872Z,5.55
2023-05-08T14:02:30.336Z,6.90
2023-05-08T14:04:59.113Z,6.30
2023-05-08T14:07:26.435Z,5.25
2023-05-08T14:09:54.176Z,7.97
2023-05-08T14:12:21.474Z,6.18
2023-05-08T14:14:48.766Z,5.97
2023-05-08T14:17:16.110Z,5.28
2023-05-08T14:19:43.457Z,6.25
2023-05-08T14:22:12.134Z,7.47
2023-05-08T14:24:39.551Z,5.75
2023-05-08T14:27:06.938Z,8.45
2023-05-08T14:29:34.315Z,6.65
2023-05-08T14:32:01.766Z,8.30
2023-05-08T14:34:29.219Z,6.85
2023-05-08T14:36:56.520Z,5.47
2023-05-08T14:39:25.177Z,5.13
2023-05-08T14:42:14.092Z,7.07
2023-05-08T14:44:40.073Z,6.63
2023-05-08T14:47:07.480Z,6.45
2023-05-08T14:49:38.516Z,6.20
2023-05-08T14:52:06.409Z,8.27
2023-05-08T14:54:35.340Z,5.80
2023-05-08T14:57:02.846Z,8.00
2023-05-08T14:59:30.158Z,7.47
2023-05-08T15:01:57.589Z,9.45
2023-05-08T15:04:25.066Z,10.07
2023-05-08T15:06:52.395Z,9.13
2023-05-08T15:09:19.719Z,10.02
2023-05-08T15:11:48.444Z,9.23
2023-05-08T15:14:15.737Z,13.80
2023-05-08T15:16:43.087Z,9.15
2023-05-08T15:19:10.554Z,9.18
2023-05-08T15:21:37.815Z,8.93
2023-05-08T15:24:05.250Z,14.07
2023-05-08T15:26:32.665Z,12.93
2023-05-08T15:29:01.295Z,10.73
2023-05-08T15:31:28.678Z,10.48
2023-05-08T15:33:56.007Z,13.38
2023-05-08T15:36:23.857Z,11.98
2023-05-08T15:38:51.254Z,11.90
2023-05-08T15:41:18.581Z,10.57
2023-05-08T15:43:46.051Z,10.90
2023-05-08T15:46:14.755Z,11.70
2023-05-08T15:48:42.088Z,12.52
2023-05-08T15:51:09.439Z,10.50
2023-05-08T15:53:36.748Z,12.00
2023-05-08T15:56:06.040Z,11.65
2023-05-08T15:58:33.316Z,10.23
2023-05-08T16:01:00.631Z,10.77
2023-05-08T16:03:29.345Z,11.27
2023-05-08T16:05:56.847Z,11.25
2023-05-08T16:08:24.132Z,13.13
2023-05-08T16:10:51.457Z,13.10
2023-05-08T16:13:18.780Z,12.60
2023-05-08T16:15:46.130Z,13.70
2023-05-08T16:18:13.449Z,11.13
2023-05-08T16:20:42.296Z,12.20
2023-05-08T16:23:09.621Z,12.70
2023-05-08T16:25:36.894Z,10.48
2023-05-08T16:28:04.307Z,12.63
2023-05-08T16:30:31.600Z,11.80
2023-05-08T16:32:58.954Z,14.25
2023-05-08T16:35:26.381Z,11.75
2023-05-08T16:37:55.124Z,11.88
2023-05-08T16:40:22.433Z,14.07
2023-05-08T16:42:49.712Z,11.77
2023-05-08T16:45:17.242Z,13.30
2023-05-08T16:47:44.573Z,13.15
2023-05-08T16:50:12.295Z,15.05
2023-05-08T16:52:39.587Z,13.02
2023-05-08T16:55:09.173Z,13.48
2023-05-08T16:57:36.474Z,13.90
2023-05-08T17:00:05.326Z,14.70
2023-05-08T17:02:32.704Z,12.68
2023-05-08T17:05:00.107Z,13.05
2023-05-08T17:07:27.490Z,13.82
2023-05-08T17:09:56.660Z,13.02
2023-05-08T17:12:25.315Z,13.10
2023-05-08T17:14:52.665Z,15.13
2023-05-08T17:17:19.978Z,13.80
2023-05-08T17:19:47.271Z,14.60
2023-05-08T17:22:14.560Z,14.85
2023-05-08T17:24:41.851Z,15.50
2023-05-08T17:27:09.495Z,12.18
2023-05-08T17:29:38.123Z,13.45
2023-05-08T17:32:06.058Z,12.20
2023-05-08T17:34:33.624Z,12.00
2023-05-08T17:37:00.987Z,10.98
2023-05-08T17:39:28.368Z,11.23
2023-05-08T17:41:56.407Z,11.13
2023-05-08T17:44:23.789Z,12.57
2023-05-08T17:46:52.430Z,11.45
2023-05-08T17:49:19.781Z,12.95
2023-05-08T17:54:32.152Z,11.10
2023-05-08T17:56:59.481Z,9.93
2023-05-08T17:59:26.869Z,10.75
2023-05-08T18:01:55.548Z,10.90
2023-05-08T18:04:22.894Z,8.73
2023-05-08T18:06:51.589Z,8.20
2023-05-08T18:09:19.165Z,8.68
2023-05-08T18:11:46.474Z,7.78
2023-05-08T18:14:13.832Z,7.57
2023-05-08T18:16:41.186Z,7.43
2023-05-08T18:19:09.845Z,7.85
2023-05-08T18:21:37.143Z,8.07
2023-05-08T18:24:04.660Z,9.40
2023-05-08T18:26:31.965Z,9.80
2023-05-08T18:28:59.539Z,9.27
2023-05-08T18:31:26.899Z,9.57
2023-05-08T18:33:54.237Z,9.52
2023-05-08T18:36:22.990Z,9.57
2023-05-08T18:38:50.758Z,10.32
2023-05-08T18:41:18.360Z,9.10
2023-05-08T18:43:45.686Z,15.60
2023-05-08T18:46:13.535Z,10.20
2023-05-08T18:48:41.124Z,10.50
2023-05-08T18:51:08.684Z,12.00
2023-05-08T18:53:38.428Z,12.57
2023-05-08T18:56:06.673Z,11.20
2023-05-08T18:58:34.062Z,11.30
2023-05-08T19:01:01.502Z,11.23
2023-05-08T19:03:29.045Z,11.68
2023-05-08T19:05:56.552Z,11.80
2023-05-08T19:08:24.050Z,10.95
2023-05-08T19:10:53.352Z,11.18
2023-05-08T19:13:20.813Z,11.88
2023-05-08T19:15:48.207Z,10.57
2023-05-08T19:18:15.674Z,12.07
2023-05-08T19:20:42.985Z,10.57
2023-05-08T19:23:10.503Z,12.88
2023-05-08T19:25:37.894Z,10.75
2023-05-08T19:28:06.677Z,10.32
2023-05-08T19:30:34.024Z,11.30
2023-05-08T19:33:01.375Z,12.52
2023-05-08T19:35:28.711Z,10.38
2023-05-08T19:37:56.027Z,11.32
2023-05-08T19:40:23.335Z,11.25
2023-05-08T19:42:50.904Z,14.40
2023-05-08T19:45:19.669Z,11.18
2023-05-08T19:47:48.202Z,11.43
2023-05-08T19:50:18.135Z,11.27
2023-05-08T19:52:46.849Z,11.40
2023-05-08T19:55:14.519Z,13.43
2023-05-08T19:57:41.810Z,12.60
2023-05-08T20:00:09.685Z,11.02
2023-05-08T20:02:38.417Z,10.38
2023-05-08T20:05:31.094Z,11.50
2023-05-08T20:07:53.413Z,11.32
2023-05-08T20:10:20.884Z,11.07
2023-05-08T20:12:48.254Z,11.20
2023-05-08T20:15:15.659Z,11.32
2023-05-08T20:17:44.405Z,11.43
2023-05-08T20:20:12.653Z,12.05
2023-05-08T20:22:40.133Z,12.05
2023-05-08T20:25:07.780Z,13.85
2023-05-08T20:27:35.121Z,14.30
2023-05-08T20:30:02.427Z,14.75
2023-05-08T20:32:29.862Z,14.40
2023-05-08T20:34:58.674Z,14.20
2023-05-08T20:37:26.028Z,13.80
2023-05-08T20:39:53.330Z,13.75
2023-05-08T20:42:20.755Z,14.10
2023-05-08T20:44:48.133Z,16.50
2023-05-08T20:47:15.440Z,13.77
2023-05-08T20:49:42.818Z,18.45
2023-05-08T20:52:11.476Z,14.40
2023-05-08T20:54:38.870Z,15.93
2023-05-08T20:57:06.191Z,15.82
2023-05-08T20:59:33.518Z,15.95
2023-05-08T21:02:00.869Z,17.60
2023-05-08T21:04:28.209Z,17.67
2023-05-08T21:06:55.697Z,16.48
2023-05-08T21:09:24.402Z,16.33
2023-05-08T21:11:51.785Z,15.57
2023-05-08T21:14:19.244Z,17.17
2023-05-08T21:16:46.641Z,15.20
2023-05-08T21:19:17.243Z,17.77
2023-05-08T21:21:44.594Z,18.88
2023-05-08T21:24:12.095Z,16.67
2023-05-08T21:26:40.747Z,14.63
2023-05-08T21:29:10.572Z,17.63
2023-05-08T21:31:37.970Z,15.77
2023-05-08T21:34:06.815Z,17.35
2023-05-08T21:36:35.080Z,16.83
2023-05-08T21:39:02.490Z,15.20
2023-05-08T21:41:30.142Z,15.82
2023-05-08T21:43:58.765Z,13.18
2023-05-08T21:46:26.134Z,13.77
2023-05-08T21:48:53.888Z,13.40
2023-05-08T21:51:21.224Z,14.63
2023-05-08T21:53:50.681Z,13.27
2023-05-08T21:56:18.075Z,17.92
2023-05-08T21:58:45.438Z,16.42
2023-05-08T22:01:14.173Z,13.32
2023-05-08T22:03:41.714Z,15.93
2023-05-08T22:06:09.267Z,15.20
2023-05-08T22:08:36.592Z,15.30
2023-05-08T22:11:03.918Z,14.70
2023-05-08T22:13:31.513Z,13.00
2023-05-08T22:15:58.849Z,16.27
2023-05-08T22:18:27.535Z,15.35
2023-05-08T22:20:54.955Z,15.05
2023-05-08T22:23:22.282Z,15.13
2023-05-08T22:25:49.644Z,14.45
2023-05-08T22:28:16.988Z,21.05
2023-05-08T22:30:44.376Z,15.38
2023-05-08T22:33:12.080Z,16.35
2023-05-08T22:35:40.817Z,17.02
2023-05-08T22:38:08.167Z,15.95
2023-05-08T22:40:35.578Z,19.00
2023-05-08T22:43:03.335Z,18.65
2023-05-08T22:45:30.822Z,18.40
2023-05-08T22:47:58.466Z,18.48
2023-05-08T22:50:25.848Z,21.85
2023-05-08T22:52:54.585Z,19.85
2023-05-08T22:55:22.048Z,18.77
2023-05-08T22:57:49.310Z,20.85
2023-05-08T23:00:17.171Z,23.35
2023-05-08T23:02:44.753Z,19.65
2023-05-08T23:05:12.290Z,22.77
2023-05-08T23:07:40.138Z,20.10
2023-05-08T23:10:09.468Z,20.52
2023-05-08T23:12:36.936Z,20.27
2023-05-08T23:15:04.575Z,18.67
2023-05-08T23:17:31.905Z,17.83
2023-05-08T23:19:59.196Z,18.10
2023-05-08T23:22:28.446Z,16.83
2023-05-08T23:24:55.717Z,18.48
2023-05-08T23:27:24.430Z,18.35
2023-05-08T23:29:51.733Z,15.10
2023-05-08T23:32:19.073Z,14.55
2023-05-08T23:34:46.386Z,14.93
2023-05-08T23:37:13.693Z,15.93
2023-05-08T23:39:41.832Z,14.68
2023-05-08T23:42:09.369Z,15.90
2023-05-08T23:44:38.058Z,14.88
2023-05-08T23:47:06.034Z,13.05
2023-05-08T23:49:33.424Z,12.73
2023-05-08T23:52:00.728Z,14.32
2023-05-08T23:54:28.079Z,13.65
2023-05-08T23:56:55.436Z,15.35
2023-05-08T23:59:22.743Z,13.02
